Time;durP1;ratioP1;P1;durP2;ratioP2;P2;SDS_P1;SDS_P2;PMS_P1;PMS_P2;Temp;Humidity;BMP_temperature;BMP_pressure;BME280_temperature;BME280_humidity;BME280_pressure;Samples;Min_cycle;Max_cycle;Signal;HPM_P1;HPM_P2
2024/04/18 00:00:36;;;;;;;1.35;1.00;;;19.50;56.00;;;;;;5251052;26;20018;-67
2024/04/18 00:03:02;;;;;;;1.20;0.90;;;19.50;56.00;;;;;;5249361;26;20473;-68
2024/04/18 00:05:27;;;;;;;1.13;0.90;;;19.50;55.90;;;;;;5253044;26;19994;-67
2024/04/18 00:07:53;;;;;;;1.15;1.05;;;19.50;55.90;;;;;;5248657;26;20093;-67
2024/04/18 00:10:19;;;;;;;2.58;0.90;;;19.50;55.80;;;;;;5252286;26;20822;-66
2024/04/18 00:12:44;;;;;;;1.02;0.98;;;19.50;55.90;;;;;;5254317;26;20018;-67
2024/04/18 00:15:10;;;;;;;1.17;1.02;;;19.50;55.90;;;;;;5263615;26;20543;-67
2024/04/18 00:17:36;;;;;;;1.42;1.33;;;19.50;55.90;;;;;;5242259;26;20005;-67
2024/04/18 00:20:03;;;;;;;1.02;0.80;;;19.50;55.90;;;;;;5257570;26;20007;-68
2024/04/18 00:22:28;;;;;;;1.27;1.17;;;19.50;55.80;;;;;;5258205;26;20057;-67
2024/04/18 00:24:54;;;;;;;1.30;0.95;;;19.50;55.80;;;;;;5247113;26;20002;-67
2024/04/18 00:27:19;;;;;;;1.20;1.10;;;19.50;55.90;;;;;;5251194;26;20344;-66
2024/04/18 00:29:46;;;;;;;1.90;1.17;;;19.50;55.70;;;;;;5256034;26;20002;-67
2024/04/18 00:32:14;;;;;;;1.10;1.00;;;19.50;55.80;;;;;;5256421;26;20011;-67
2024/04/18 00:34:39;;;;;;;1.17;0.90;;;19.40;55.80;;;;;;5253860;26;20002;-66
2024/04/18 00:37:04;;;;;;;1.20;1.10;;;19.50;55.80;;;;;;5253235;26;20088;-67
2024/04/18 00:39:30;;;;;;;1.98;1.10;;;19.50;55.70;;;;;;5257342;26;20470;-67
2024/04/18 00:41:55;;;;;;;1.45;1.10;;;19.40;55.70;;;;;;5256140;26;20020;-68
2024/04/18 00:44:21;;;;;;;1.10;1.00;;;19.50;55.80;;;;;;5259944;26;20006;-68
2024/04/18 00:46:48;;;;;;;1.20;1.10;;;19.50;55.90;;;;;;5258586;26;20001;-68
2024/04/18 00:49:15;;;;;;;1.38;1.25;;;19.40;55.70;;;;;;5243500;26;20003;-68
2024/04/18 00:51:41;;;;;;;1.33;1.23;;;19.40;55.80;;;;;;5255756;26;20444;-67
2024/04/18 00:54:07;;;;;;;1.67;1.13;;;19.50;55.80;;;;;;5242833;26;20007;-66
2024/04/18 00:56:33;;;;;;;1.02;1.00;;;19.40;55.80;;;;;;5242286;26;20028;-67
2024/04/18 00:59:00;;;;;;;1.52;1.13;;;19.50;55.80;;;;;;5239805;26;19999;-68
2024/04/18 01:01:26;;;;;;;1.00;0.90;;;19.40;55.70;;;;;;5240801;26;20467;-68
2024/04/18 01:03:53;;;;;;;1.02;0.93;;;19.40;55.60;;;;;;5251763;26;20101;-67
2024/04/18 01:06:19;;;;;;;1.70;0.95;;;19.40;55.70;;;;;;5239046;26;19998;-67
2024/04/18 01:08:44;;;;;;;1.83;1.13;;;19.40;55.80;;;;;;5250573;26;20002;-67
2024/04/18 01:11:10;;;;;;;1.23;1.13;;;19.40;55.80;;;;;;5248594;26;20024;-67
2024/04/18 01:13:39;;;;;;;1.30;1.20;;;19.30;55.90;;;;;;5258488;26;20009;-66
2024/04/18 01:16:05;;;;;;;1.00;0.93;;;19.30;55.90;;;;;;5262622;26;20017;-67
2024/04/18 01:18:31;;;;;;;1.23;1.10;;;19.30;56.00;;;;;;5257989;26;20006;-68
2024/04/18 01:20:57;;;;;;;1.58;1.48;;;19.30;56.10;;;;;;5255212;26;19998;-68
2024/04/18 01:23:25;;;;;;;1.40;1.15;;;19.20;56.10;;;;;;5256255;26;20492;-67
2024/04/18 01:25:51;;;;;;;1.10;0.93;;;19.20;56.10;;;;;;5239567;26;19998;-66
2024/04/18 01:28:17;;;;;;;1.13;1.02;;;19.20;56.20;;;;;;5246914;26;20076;-68
2024/04/18 01:30:42;;;;;;;1.23;1.10;;;19.20;56.30;;;;;;5243171;26;20346;-68
2024/04/18 01:33:08;;;;;;;2.00;1.52;;;19.10;56.30;;;;;;5235890;26;20842;-68
2024/04/18 01:35:33;;;;;;;1.25;1.15;;;19.10;56.40;;;;;;5245568;26;20065;-68
2024/04/18 01:37:58;;;;;;;1.98;1.25;;;19.10;56.40;;;;;;5251786;26;20002;-68
2024/04/18 01:40:24;;;;;;;1.48;1.38;;;19.10;56.40;;;;;;5254800;26;20003;-70
2024/04/18 01:42:49;;;;;;;1.58;1.30;;;19.10;56.40;;;;;;5270624;26;20337;-68
2024/04/18 01:45:15;;;;;;;1.40;1.30;;;19.10;56.40;;;;;;5252907;26;19995;-68
2024/04/18 01:47:41;;;;;;;1.23;1.13;;;19.10;56.30;;;;;;5260865;26;20005;-68
2024/04/18 01:50:07;;;;;;;1.52;1.42;;;19.10;56.30;;;;;;5244722;26;19995;-68
2024/04/18 01:52:33;;;;;;;1.55;1.00;;;19.10;56.10;;;;;;5251827;26;19998;-69
2024/04/18 01:54:59;;;;;;;2.10;1.50;;;19.10;56.20;;;;;;5244051;26;20030;-69
2024/04/18 01:57:25;;;;;;;1.67;1.40;;;19.10;56.10;;;;;;5240120;26;20335;-69
2024/04/18 01:59:50;;;;;;;1.73;1.50;;;19.10;56.20;;;;;;5257694;26;19999;-68
2024/04/18 02:02:16;;;;;;;1.48;1.30;;;19.10;56.10;;;;;;5249566;26;20431;-69
2024/04/18 02:04:41;;;;;;;1.52;1.20;;;19.20;56.20;;;;;;5255191;26;20007;-69
2024/04/18 02:07:06;;;;;;;3.72;1.35;;;19.20;56.10;;;;;;5253222;26;20351;-69
2024/04/18 02:09:32;;;;;;;1.48;1.25;;;19.10;56.00;;;;;;5255352;26;20014;-68
2024/04/18 02:11:57;;;;;;;1.60;1.50;;;19.20;56.10;;;;;;5258993;26;20002;-69
2024/04/18 02:14:23;;;;;;;1.20;1.10;;;19.20;55.90;;;;;;5264472;26;20180;-69
2024/04/18 02:16:48;;;;;;;1.20;1.05;;;19.20;56.10;;;;;;5257100;26;20005;-68
2024/04/18 02:19:14;;;;;;;1.35;1.17;;;19.10;56.00;;;;;;5249255;26;20361;-68
2024/04/18 02:21:39;;;;;;;2.28;1.38;;;19.20;56.10;;;;;;5251426;26;19995;-69
2024/04/18 02:24:05;;;;;;;2.63;1.40;;;19.10;56.10;;;;;;5240346;26;20334;-68
2024/04/18 02:26:33;;;;;;;2.13;1.60;;;19.10;55.90;;;;;;5251422;26;20034;-68
2024/04/18 02:28:59;;;;;;;1.90;1.23;;;19.10;56.00;;;;;;5251449;26;20345;-69
2024/04/18 02:31:24;;;;;;;1.38;1.27;;;19.10;56.00;;;;;;5248527;26;20022;-70
2024/04/18 02:33:51;;;;;;;1.42;1.30;;;19.10;56.00;;;;;;5251374;26;20544;-68
2024/04/18 02:36:17;;;;;;;1.27;1.10;;;19.10;56.10;;;;;;5255362;26;19998;-69
2024/04/18 02:38:42;;;;;;;1.55;1.45;;;19.10;56.10;;;;;;5248138;26;20576;-68
2024/04/18 02:41:08;;;;;;;1.50;1.30;;;19.10;56.10;;;;;;5259872;26;20013;-69
2024/04/18 02:43:34;;;;;;;1.88;1.50;;;19.10;56.00;;;;;;5263594;26;20058;-68
2024/04/18 02:46:00;;;;;;;1.42;1.33;;;19.10;56.10;;;;;;5257439;26;20034;-68
2024/04/18 02:48:26;;;;;;;1.23;1.13;;;19.10;56.00;;;;;;5254231;26;20017;-69
2024/04/18 02:50:52;;;;;;;1.55;1.45;;;19.00;56.00;;;;;;5256700;26;20621;-68
2024/04/18 02:53:17;;;;;;;2.00;1.42;;;19.10;56.00;;;;;;5247230;26;20330;-67
2024/04/18 02:55:43;;;;;;;1.20;1.10;;;19.10;56.00;;;;;;5250958;26;20013;-68
2024/04/18 02:58:08;;;;;;;1.67;1.17;;;19.10;56.10;;;;;;5250131;26;20003;-68
2024/04/18 03:00:37;;;;;;;1.10;1.00;;;19.00;55.90;;;;;;5249493;26;20066;-68
2024/04/18 03:03:02;;;;;;;1.80;1.70;;;19.00;56.00;;;;;;5258461;26;20010;-68
2024/04/18 03:05:28;;;;;;;1.40;1.30;;;19.10;56.00;;;;;;5256041;26;20117;-68
2024/04/18 03:07:57;;;;;;;1.85;1.50;;;19.00;56.00;;;;;;5251138;26;20079;-67
2024/04/18 03:10:23;;;;;;;1.80;1.38;;;19.00;56.00;;;;;;5254538;26;20006;-67
2024/04/18 03:12:53;;;;;;;1.40;1.30;;;19.10;56.00;;;;;;5254679;26;20033;-67
2024/04/18 03:15:19;;;;;;;2.00;1.73;;;19.00;56.00;;;;;;5250357;26;20003;-68
2024/04/18 03:17:44;;;;;;;1.83;1.40;;;19.00;55.90;;;;;;5255817;26;20015;-67
2024/04/18 03:20:10;;;;;;;1.42;1.30;;;19.10;56.10;;;;;;5250584;26;19998;-67
2024/04/18 03:22:40;;;;;;;1.90;1.35;;;19.00;56.00;;;;;;5255416;26;20092;-67
2024/04/18 03:25:06;;;;;;;1.63;1.30;;;19.00;55.90;;;;;;5247325;26;20084;-68
2024/04/18 03:27:32;;;;;;;1.50;1.17;;;19.00;55.80;;;;;;5252536;26;20006;-67
2024/04/18 03:29:57;;;;;;;2.88;1.33;;;19.00;55.90;;;;;;5262238;26;20010;-68
2024/04/18 03:32:23;;;;;;;1.42;1.17;;;19.00;55.90;;;;;;5253094;26;20017;-68
2024/04/18 03:34:52;;;;;;;1.42;1.20;;;19.00;55.80;;;;;;5259086;26;20050;-68
2024/04/18 03:37:18;;;;;;;1.45;1.35;;;19.00;55.80;;;;;;5255551;26;21143;-67
2024/04/18 03:39:43;;;;;;;2.05;1.10;;;19.00;55.80;;;;;;5254120;26;20006;-68
2024/04/18 03:42:09;;;;;;;2.22;1.25;;;19.10;55.90;;;;;;5257642;26;20014;-68
2024/04/18 03:44:34;;;;;;;1.35;1.25;;;19.10;55.70;;;;;;5254432;26;20006;-67
2024/04/18 03:47:00;;;;;;;1.13;1.02;;;19.00;55.80;;;;;;5257368;26;20018;-68
2024/04/18 03:49:28;;;;;;;2.22;1.10;;;19.10;55.80;;;;;;5249100;26;20761;-68
2024/04/18 03:51:53;;;;;;;1.35;1.10;;;19.10;55.70;;;;;;5252896;26;20361;-68
2024/04/18 03:54:20;;;;;;;1.20;1.10;;;19.00;55.80;;;;;;5248331;26;20002;-67
2024/04/18 03:56:45;;;;;;;2.08;1.10;;;19.10;55.70;;;;;;5250445;26;20073;-67
2024/04/18 03:59:11;;;;;;;1.23;1.13;;;19.00;55.70;;;;;;5254262;26;20042;-67
2024/04/18 04:01:36;;;;;;;2.35;1.17;;;19.10;55.70;;;;;;5254864;26;20062;-67
2024/04/18 04:04:02;;;;;;;1.58;1.27;;;19.10;55.70;;;;;;5254387;26;20016;-70
2024/04/18 04:06:27;;;;;;;1.33;1.13;;;19.10;55.70;;;;;;5246923;26;19998;-70
2024/04/18 04:08:53;;;;;;;2.90;1.35;;;19.10;55.70;;;;;;5263211;26;20021;-68
2024/04/18 04:11:19;;;;;;;1.83;1.33;;;19.10;55.50;;;;;;5252795;26;20014;-68
2024/04/18 04:13:44;;;;;;;1.48;1.17;;;19.10;55.60;;;;;;5258348;26;20009;-67
2024/04/18 04:16:09;;;;;;;1.35;1.20;;;19.10;55.60;;;;;;5251037;26;19999;-69
2024/04/18 04:18:35;;;;;;;1.98;1.40;;;19.10;55.50;;;;;;5252684;26;20006;-66
2024/04/18 04:21:00;;;;;;;1.40;1.20;;;19.10;55.60;;;;;;5247975;26;20006;-68
2024/04/18 04:23:26;;;;;;;1.90;1.40;;;19.10;55.50;;;;;;5253830;26;20050;-68
2024/04/18 04:25:51;;;;;;;1.70;1.17;;;19.10;55.50;;;;;;5252444;26;20006;-68
2024/04/18 04:28:17;;;;;;;1.38;1.27;;;19.10;55.50;;;;;;5244372;26;20027;-69
2024/04/18 04:30:42;;;;;;;1.77;1.45;;;19.10;55.50;;;;;;5251766;26;20002;-67
2024/04/18 04:33:08;;;;;;;1.70;1.60;;;19.10;55.50;;;;;;5255610;26;20319;-67
2024/04/18 04:35:33;;;;;;;1.50;1.17;;;19.10;55.40;;;;;;5259008;26;20007;-68
2024/04/18 04:37:59;;;;;;;1.50;1.40;;;19.10;55.50;;;;;;5247805;26;20011;-68
2024/04/18 04:40:24;;;;;;;1.92;1.65;;;19.10;55.40;;;;;;5252874;26;20010;-68
2024/04/18 04:42:50;;;;;;;1.60;1.50;;;19.10;55.40;;;;;;5257080;26;20009;-68
2024/04/18 04:45:15;;;;;;;2.92;1.40;;;19.10;55.50;;;;;;5229753;26;20434;-68
2024/04/18 04:47:41;;;;;;;1.48;1.38;;;19.10;55.50;;;;;;5253410;26;20346;-66
2024/04/18 04:50:06;;;;;;;1.92;1.50;;;19.10;55.40;;;;;;5252555;26;20477;-66
2024/04/18 04:52:32;;;;;;;1.95;1.50;;;19.10;55.40;;;;;;5250684;26;20003;-67
2024/04/18 04:54:57;;;;;;;2.67;1.80;;;19.10;55.40;;;;;;5241048;26;20018;-68
2024/04/18 04:57:23;;;;;;;2.33;1.90;;;19.10;55.30;;;;;;5260873;26;20097;-68
2024/04/18 04:59:48;;;;;;;1.90;1.55;;;19.10;55.30;;;;;;5254448;26;20311;-68
2024/04/18 05:02:14;;;;;;;1.80;1.70;;;19.10;55.40;;;;;;5254646;26;20061;-67
2024/04/18 05:04:39;;;;;;;1.75;1.65;;;19.10;55.30;;;;;;5246988;26;20021;-67
2024/04/18 05:07:05;;;;;;;2.00;1.83;;;19.10;55.30;;;;;;5267603;26;19998;-67
2024/04/18 05:09:30;;;;;;;2.60;2.40;;;19.10;55.30;;;;;;5261301;26;20057;-67
2024/04/18 05:11:56;;;;;;;2.25;1.73;;;19.20;55.30;;;;;;5258828;26;20059;-70
2024/04/18 05:14:22;;;;;;;3.28;1.85;;;19.10;55.30;;;;;;5252130;26;20065;-67
2024/04/18 05:16:48;;;;;;;1.65;1.55;;;19.20;55.40;;;;;;5257172;26;20234;-69
2024/04/18 05:19:14;;;;;;;2.55;2.20;;;19.10;55.40;;;;;;5256111;26;20392;-67
2024/04/18 05:21:39;;;;;;;4.03;1.90;;;19.10;55.40;;;;;;5246285;26;20412;-69
2024/04/18 05:24:05;;;;;;;2.63;1.70;;;19.10;55.60;;;;;;5257360;26;20081;-66
2024/04/18 05:26:34;;;;;;;2.20;2.00;;;19.10;55.60;;;;;;5258751;26;20034;-65
2024/04/18 05:31:46;;;;;;;4.07;2.25;;;19.10;55.60;;;;;;5270943;26;20017;-69
2024/04/18 05:34:12;;;;;;;3.92;2.28;;;19.10;55.70;;;;;;5267568;26;20458;-72
2024/04/18 05:36:37;;;;;;;3.10;2.08;;;19.10;55.70;;;;;;5275659;26;20003;-70
2024/04/18 05:39:03;;;;;;;2.58;2.35;;;19.10;55.60;;;;;;5275762;26;20365;-68
2024/04/18 05:41:29;;;;;;;2.33;2.10;;;19.10;55.70;;;;;;5277691;26;20009;-68
2024/04/18 05:43:55;;;;;;;3.08;2.17;;;19.10;55.50;;;;;;5279359;26;20076;-66
2024/04/18 05:46:20;;;;;;;4.63;2.33;;;19.10;55.70;;;;;;5277827;26;20014;-68
2024/04/18 05:48:46;;;;;;;3.97;2.40;;;19.10;55.70;;;;;;5262039;26;20468;-67
2024/04/18 05:51:11;;;;;;;2.67;2.17;;;19.10;55.70;;;;;;5275001;26;20005;-66
2024/04/18 05:53:37;;;;;;;3.97;2.40;;;19.10;56.30;;;;;;5266552;26;20003;-67
2024/04/18 05:56:03;;;;;;;3.50;2.60;;;19.10;56.30;;;;;;5271940;26;20006;-66
2024/04/18 05:58:32;;;;;;;3.05;2.30;;;19.10;55.70;;;;;;5277068;26;20001;-68
2024/04/18 06:00:58;;;;;;;3.15;2.40;;;19.10;55.70;;;;;;5279542;26;20496;-69
2024/04/18 06:03:25;;;;;;;2.72;2.13;;;19.10;55.70;;;;;;5281385;26;19998;-68
2024/04/18 06:05:52;;;;;;;2.15;1.98;;;19.10;55.60;;;;;;5272125;26;20033;-69
2024/04/18 06:08:17;;;;;;;3.13;2.45;;;19.10;55.70;;;;;;5273098;26;20010;-69
2024/04/18 06:10:43;;;;;;;5.10;2.55;;;19.10;55.80;;;;;;5278708;26;20363;-67
2024/04/18 06:13:09;;;;;;;2.53;2.20;;;19.10;55.80;;;;;;5278354;26;20354;-68
2024/04/18 06:15:35;;;;;;;2.90;2.45;;;19.10;55.80;;;;;;5282276;26;20081;-69
2024/04/18 06:18:00;;;;;;;2.72;2.38;;;19.10;55.80;;;;;;5280259;26;20010;-68
2024/04/18 06:20:27;;;;;;;4.15;2.20;;;19.10;55.70;;;;;;5282746;26;20002;-70
2024/04/18 06:22:52;;;;;;;2.42;2.22;;;19.10;55.60;;;;;;5285354;26;20012;-68
2024/04/18 06:25:18;;;;;;;3.80;2.35;;;19.10;55.70;;;;;;5284328;26;20009;-69
2024/04/18 06:27:44;;;;;;;2.60;2.20;;;19.20;55.60;;;;;;5292086;26;20525;-69
2024/04/18 06:30:10;;;;;;;2.58;2.15;;;19.20;55.60;;;;;;5288818;26;20012;-70
2024/04/18 06:32:37;;;;;;;5.70;2.17;;;19.20;55.70;;;;;;5287872;26;20018;-68
2024/04/18 06:35:03;;;;;;;2.90;2.22;;;19.10;55.50;;;;;;5270686;26;20018;-69
2024/04/18 06:37:29;;;;;;;6.50;2.63;;;19.20;55.70;;;;;;5268477;26;20496;-68
2024/04/18 06:39:54;;;;;;;7.32;5.18;;;19.20;55.70;;;;;;5259342;26;20014;-69
2024/04/18 06:42:19;;;;;;;12.65;6.68;;;19.20;55.80;;;;;;5260361;26;20038;-69
2024/04/18 06:44:45;;;;;;;17.85;9.65;;;19.20;55.70;;;;;;5186448;26;19994;-69
2024/04/18 06:47:10;;;;;;;25.88;12.15;;;19.20;55.70;;;;;;5268760;26;20440;-69
2024/04/18 06:49:36;;;;;;;24.23;12.85;;;19.20;55.70;;;;;;5189257;26;20050;-68
2024/04/18 06:52:02;;;;;;;22.38;12.98;;;19.20;55.80;;;;;;5264127;26;20014;-69
2024/04/18 06:54:28;;;;;;;25.63;14.32;;;19.20;55.80;;;;;;5264946;26;20018;-71
2024/04/18 06:56:54;;;;;;;24.45;13.63;;;19.20;55.90;;;;;;5264816;26;20006;-70
2024/04/18 06:59:19;;;;;;;24.40;13.02;;;19.20;55.90;;;;;;5254706;26;20003;-73
2024/04/18 07:01:46;;;;;;;26.77;13.15;;;19.20;55.90;;;;;;5257536;26;20016;-71
2024/04/18 07:04:11;;;;;;;24.02;13.55;;;19.10;55.80;;;;;;5265013;26;20433;-72
2024/04/18 07:06:37;;;;;;;28.15;15.57;;;19.10;55.90;;;;;;5254102;26;20006;-71
2024/04/18 07:09:02;;;;;;;34.45;19.85;;;19.10;55.90;;;;;;5246516;26;20508;-70
2024/04/18 07:11:28;;;;;;;39.40;19.45;;;19.10;55.90;;;;;;5259186;26;20002;-72
2024/04/18 07:13:53;;;;;;;37.28;19.85;;;19.10;55.90;;;;;;5261409;26;20005;-69
2024/04/18 07:16:19;;;;;;;46.60;23.13;;;19.10;56.00;;;;;;5257209;26;20466;-71
2024/04/18 07:18:45;;;;;;;44.67;22.67;;;19.00;56.00;;;;;;5255602;26;20025;-72
2024/04/18 07:21:10;;;;;;;42.83;24.30;;;19.00;56.20;;;;;;5259595;26;20373;-72
2024/04/18 07:23:36;;;;;;;48.70;24.85;;;19.00;56.20;;;;;;5261231;26;20003;-71
2024/04/18 07:26:02;;;;;;;40.58;23.60;;;19.00;56.30;;;;;;5260109;26;20016;-71
2024/04/18 07:28:27;;;;;;;40.17;23.30;;;18.90;56.30;;;;;;5260443;26;20007;-71
2024/04/18 07:30:53;;;;;;;41.47;23.52;;;18.90;56.30;;;;;;5253300;26;20049;-72
2024/04/18 07:33:18;;;;;;;40.92;23.73;;;19.00;56.30;;;;;;5258376;26;19999;-72
2024/04/18 07:35:58;;;;;;;46.63;23.20;;;18.90;56.20;;;;;;5267175;26;20572;-72
2024/04/18 07:38:24;;;;;;;42.35;23.23;;;19.00;56.30;;;;;;5261477;26;20002;-71
2024/04/18 07:40:50;;;;;;;39.17;23.50;;;19.00;56.20;;;;;;5258773;26;20013;-72
2024/04/18 07:43:15;;;;;;;38.33;21.50;;;19.00;56.10;;;;;;5260595;26;20002;-72
2024/04/18 07:45:41;;;;;;;35.22;21.75;;;19.00;56.20;;;;;;5258250;26;20017;-72
2024/04/18 07:48:07;;;;;;;37.95;20.23;;;19.00;56.20;;;;;;5259562;26;20543;-71
2024/04/18 07:50:33;;;;;;;37.83;19.95;;;19.00;56.20;;;;;;5256461;26;20089;-71
2024/04/18 07:52:58;;;;;;;36.05;20.30;;;19.00;56.00;;;;;;5261164;26;20009;-72
2024/04/18 07:55:24;;;;;;;33.90;18.80;;;19.00;56.10;;;;;;5254896;26;20009;-68
2024/04/18 07:57:50;;;;;;;28.27;17.83;;;19.00;56.10;;;;;;5262252;26;20081;-72
2024/04/18 08:00:16;;;;;;;29.25;18.10;;;19.00;56.00;;;;;;5259432;26;20080;-72
2024/04/18 08:02:41;;;;;;;31.02;16.75;;;19.00;55.90;;;;;;5259894;26;20596;-72
2024/04/18 08:05:07;;;;;;;26.90;16.25;;;19.00;55.80;;;;;;5281703;26;20001;-72
2024/04/18 08:07:32;;;;;;;24.77;15.68;;;19.10;55.90;;;;;;5259536;26;20108;-71
2024/04/18 08:09:58;;;;;;;24.02;14.88;;;19.10;55.80;;;;;;5260186;26;20570;-72
2024/04/18 08:12:23;;;;;;;24.27;15.77;;;19.10;55.80;;;;;;5260194;26;20002;-72
2024/04/18 08:14:49;;;;;;;25.90;14.88;;;19.10;55.70;;;;;;5258822;26;20004;-72
2024/04/18 08:17:14;;;;;;;27.08;15.38;;;19.20;55.80;;;;;;5256145;26;20518;-72
2024/04/18 08:19:40;;;;;;;22.08;12.95;;;19.20;55.70;;;;;;5260305;26;20010;-72
2024/04/18 08:22:05;;;;;;;24.33;13.88;;;19.20;55.60;;;;;;5256190;26;20002;-71
2024/04/18 08:24:33;;;;;;;20.70;11.80;;;19.30;55.70;;;;;;5250882;26;20021;-72
2024/04/18 08:26:59;;;;;;;20.77;12.30;;;19.30;55.50;;;;;;5254601;26;20002;-72
2024/04/18 08:29:26;;;;;;;16.92;11.35;;;19.30;55.80;;;;;;5258315;26;20366;-72
2024/04/18 08:31:54;;;;;;;17.23;10.98;;;19.30;55.40;;;;;;5259328;26;20073;-73
2024/04/18 08:34:20;;;;;;;16.83;10.95;;;19.40;55.30;;;;;;5261459;26;20013;-70
2024/04/18 08:36:45;;;;;;;18.83;11.75;;;19.40;55.30;;;;;;5266510;26;20002;-72
2024/04/18 08:39:12;;;;;;;17.08;9.95;;;19.40;55.30;;;;;;5260928;26;20352;-72
2024/04/18 08:41:38;;;;;;;15.55;9.70;;;19.40;55.30;;;;;;5260339;26;19998;-72
2024/04/18 08:44:05;;;;;;;14.10;9.85;;;19.40;55.30;;;;;;5257208;26;20405;-72
2024/04/18 08:46:34;;;;;;;15.52;9.32;;;19.40;55.20;;;;;;5252261;26;20068;-72
2024/04/18 08:49:02;;;;;;;13.77;8.52;;;19.50;55.30;;;;;;5254760;26;20006;-72
2024/04/18 08:51:28;;;;;;;13.25;8.32;;;19.50;55.30;;;;;;5254586;26;20003;-72
2024/04/18 08:53:54;;;;;;;12.32;8.15;;;19.50;55.20;;;;;;5257784;26;20001;-72
2024/04/18 08:56:22;;;;;;;10.10;7.18;;;19.50;55.30;;;;;;5260275;26;20376;-72
2024/04/18 08:58:48;;;;;;;12.80;8.25;;;19.50;55.20;;;;;;5257904;26;20325;-72
2024/04/18 09:01:13;;;;;;;11.02;7.45;;;19.50;55.20;;;;;;5258165;26;20003;-72
2024/04/18 09:03:40;;;;;;;10.02;6.63;;;19.50;55.20;;;;;;5264463;26;20042;-72
2024/04/18 09:06:06;;;;;;;9.15;6.38;;;19.50;55.20;;;;;;5262719;26;20012;-72
2024/04/18 09:08:32;;;;;;;10.43;6.57;;;19.60;55.10;;;;;;5259159;26;20018;-72
2024/04/18 09:11:02;;;;;;;8.70;6.35;;;19.60;55.10;;;;;;5253572;26;20025;-72
2024/04/18 09:13:29;;;;;;;8.43;5.65;;;19.60;55.10;;;;;;5254910;26;20006;-71
2024/04/18 09:15:54;;;;;;;9.30;5.68;;;19.60;54.90;;;;;;5255688;26;20002;-73
2024/04/18 09:18:20;;;;;;;9.70;6.00;;;19.60;55.00;;;;;;5258619;26;20367;-73
2024/04/18 09:20:47;;;;;;;10.55;6.10;;;19.70;55.00;;;;;;5254437;26;20501;-72
2024/04/18 09:23:12;;;;;;;12.38;7.45;;;19.60;55.00;;;;;;5253459;26;20556;-72
2024/04/18 09:25:38;;;;;;;15.77;8.32;;;19.70;54.90;;;;;;5254304;26;20000;-72
2024/04/18 09:28:03;;;;;;;16.08;9.20;;;19.60;54.90;;;;;;5249510;26;20014;-73
2024/04/18 09:30:29;;;;;;;16.02;9.48;;;19.60;55.00;;;;;;5246519;26;20484;-73
2024/04/18 09:32:57;;;;;;;20.52;10.70;;;19.60;54.80;;;;;;5252669;26;20006;-74
2024/04/18 09:35:27;;;;;;;18.23;11.25;;;19.70;54.90;;;;;;5251871;26;20013;-72
2024/04/18 09:37:53;;;;;;;22.50;12.18;;;19.60;55.00;;;;;;5269977;26;19998;-73
2024/04/18 09:40:23;;;;;;;20.10;12.77;;;19.70;54.90;;;;;;5254159;26;20062;-72
2024/04/18 09:43:14;;;;;;;22.98;13.45;;;19.70;55.00;;;;;;5267588;26;20583;-72
2024/04/18 09:45:47;;;;;;;18.70;12.25;;;19.70;54.90;;;;;;5281727;26;20345;-72
2024/04/18 09:48:14;;;;;;;21.55;14.02;;;19.70;55.00;;;;;;5299049;26;20010;-73
2024/04/18 09:50:41;;;;;;;20.73;12.68;;;19.70;54.90;;;;;;5258789;26;20014;-72
2024/04/18 09:53:07;;;;;;;23.00;12.82;;;19.60;55.00;;;;;;5286598;26;20013;-71
2024/04/18 09:55:33;;;;;;;19.92;11.98;;;19.70;55.00;;;;;;5282859;26;20009;-72
2024/04/18 09:58:00;;;;;;;21.40;12.60;;;19.70;54.90;;;;;;5268910;26;20044;-71
2024/04/18 10:00:27;;;;;;;18.55;12.50;;;19.60;54.80;;;;;;5248429;26;20037;-73
2024/04/18 10:02:53;;;;;;;19.88;12.00;;;19.70;54.80;;;;;;5285536;26;20497;-73
2024/04/18 10:05:19;;;;;;;16.23;11.13;;;19.70;54.90;;;;;;5274621;26;20009;-71
2024/04/18 10:07:46;;;;;;;20.75;11.82;;;19.60;55.50;;;;;;5279856;26;20461;-73
2024/04/18 10:10:12;;;;;;;12.30;9.40;;;19.60;55.10;;;;;;5271584;26;20022;-71
2024/04/18 10:12:40;;;;;;;19.33;10.35;;;19.60;55.80;;;;;;5270565;26;20397;-72
2024/04/18 10:15:07;;;;;;;16.85;10.73;;;19.50;55.20;;;;;;5281407;26;20002;-72
2024/04/18 10:17:32;;;;;;;13.30;9.73;;;19.50;55.30;;;;;;5273825;26;20002;-72
2024/04/18 10:20:02;;;;;;;14.43;9.32;;;19.40;55.30;;;;;;5268597;26;20028;-71
2024/04/18 10:22:34;;;;;;;16.65;10.13;;;19.40;55.30;;;;;;5265964;26;19998;-69
2024/04/18 10:24:59;;;;;;;17.35;9.50;;;19.40;55.50;;;;;;5273504;26;20021;-73
2024/04/18 10:27:25;;;;;;;16.38;9.30;;;19.30;55.50;;;;;;5278370;26;20717;-71
2024/04/18 10:29:58;;;;;;;14.18;8.68;;;19.30;55.50;;;;;;5273840;26;20002;-73
2024/04/18 10:32:29;;;;;;;11.60;8.65;;;19.30;55.40;;;;;;5271062;26;19998;-69
2024/04/18 10:34:54;;;;;;;14.02;8.73;;;19.30;55.40;;;;;;5286372;26;20008;-73
2024/04/18 10:37:22;;;;;;;14.68;8.40;;;19.30;55.50;;;;;;5262846;26;20010;-69
2024/04/18 10:39:48;;;;;;;11.35;7.63;;;19.30;55.50;;;;;;5264206;26;20017;-73
2024/04/18 10:42:18;;;;;;;11.75;6.95;;;19.20;55.50;;;;;;5265361;26;20025;-72
2024/04/18 10:44:45;;;;;;;11.25;7.15;;;19.20;56.10;;;;;;5266397;26;20007;-73
2024/04/18 10:47:11;;;;;;;10.68;7.38;;;19.20;55.50;;;;;;5265501;26;20012;-73
2024/04/18 10:49:38;;;;;;;12.60;6.78;;;19.20;55.40;;;;;;5263022;26;20002;-73
2024/04/18 10:52:08;;;;;;;7.88;6.07;;;19.30;55.50;;;;;;5263091;26;20442;-73
2024/04/18 10:54:36;;;;;;;7.95;6.40;;;19.20;55.50;;;;;;5267486;26;19999;-73
2024/04/18 10:57:02;;;;;;;8.38;5.65;;;19.20;55.40;;;;;;5267708;26;20017;-75
2024/04/18 10:59:28;;;;;;;9.60;6.00;;;19.30;55.50;;;;;;5266121;26;20006;-72
2024/04/18 11:02:07;;;;;;;8.10;6.30;;;19.30;55.50;;;;;;5265898;26;20525;-75
2024/04/18 11:04:33;;;;;;;8.80;5.88;;;19.30;55.50;;;;;;5269300;26;20006;-72
2024/04/18 11:07:00;;;;;;;9.40;5.20;;;19.20;55.50;;;;;;5269770;26;20007;-74
2024/04/18 11:09:26;;;;;;;7.45;4.88;;;19.20;55.60;;;;;;5265678;26;20002;-73
2024/04/18 11:11:52;;;;;;;7.55;4.97;;;19.20;55.60;;;;;;5268273;26;20014;-73
2024/04/18 11:14:17;;;;;;;6.82;4.80;;;19.20;55.50;;;;;;5268595;26;20350;-74
2024/04/18 11:16:44;;;;;;;8.23;4.85;;;19.20;55.70;;;;;;5268456;26;20583;-72
2024/04/18 11:19:09;;;;;;;8.45;4.70;;;19.20;55.70;;;;;;5269346;26;20014;-72
2024/04/18 11:21:35;;;;;;;8.75;4.90;;;19.20;56.40;;;;;;5258724;26;20355;-73
2024/04/18 11:24:00;;;;;;;7.40;4.82;;;19.10;55.70;;;;;;5247939;26;20006;-72
2024/04/18 11:26:26;;;;;;;7.35;4.55;;;19.10;55.80;;;;;;5250334;26;20009;-73
2024/04/18 11:28:55;;;;;;;5.55;4.13;;;19.10;55.80;;;;;;5250030;26;20006;-74
2024/04/18 11:31:20;;;;;;;8.45;4.57;;;19.10;55.80;;;;;;5259988;26;20050;-73
2024/04/18 11:33:46;;;;;;;6.43;3.92;;;19.10;55.80;;;;;;5253514;26;20530;-74
2024/04/18 11:36:13;;;;;;;5.63;3.92;;;19.10;55.90;;;;;;5259615;26;20006;-72
2024/04/18 11:38:39;;;;;;;5.32;3.78;;;19.10;55.90;;;;;;5255951;26;20010;-71
2024/04/18 11:41:04;;;;;;;6.15;3.88;;;19.10;55.90;;;;;;5252087;26;20054;-72
2024/04/18 11:43:30;;;;;;;6.57;4.25;;;19.10;55.80;;;;;;5259564;26;20097;-73
2024/04/18 11:45:55;;;;;;;7.55;3.90;;;19.10;55.80;;;;;;5253685;26;19999;-73
2024/04/18 11:48:21;;;;;;;4.70;3.70;;;19.20;55.90;;;;;;5251342;26;20017;-73
2024/04/18 11:50:47;;;;;;;4.90;3.45;;;19.20;55.80;;;;;;5259862;26;20017;-73
2024/04/18 11:53:12;;;;;;;3.83;3.08;;;19.10;55.90;;;;;;5238308;26;20021;-73
2024/04/18 11:55:38;;;;;;;5.63;3.50;;;19.20;55.80;;;;;;5249055;26;20039;-72
2024/04/18 11:58:04;;;;;;;5.57;3.60;;;19.10;55.90;;;;;;5253646;26;20014;-72
2024/04/18 12:00:33;;;;;;;5.20;3.55;;;19.10;56.50;;;;;;5257149;26;20002;-73
2024/04/18 12:02:59;;;;;;;4.30;3.35;;;19.10;55.90;;;;;;5255626;26;20543;-72
2024/04/18 12:05:25;;;;;;;5.85;2.67;;;19.10;55.90;;;;;;5263253;26;20003;-73
2024/04/18 12:07:51;;;;;;;3.50;2.67;;;19.20;55.90;;;;;;5258029;26;20002;-75
2024/04/18 12:10:17;;;;;;;3.60;2.83;;;19.20;55.80;;;;;;5259016;26;20360;-76
2024/04/18 12:12:42;;;;;;;2.67;2.42;;;19.20;55.80;;;;;;5257850;26;20080;-73
2024/04/18 12:15:09;;;;;;;4.15;2.67;;;19.20;55.80;;;;;;5257272;26;20014;-74
2024/04/18 12:17:35;;;;;;;2.80;2.40;;;19.20;55.70;;;;;;5254390;26;20077;-72
2024/04/18 12:20:00;;;;;;;3.00;2.25;;;19.20;55.70;;;;;;5250198;26;20170;-72
2024/04/18 12:22:26;;;;;;;3.58;2.33;;;19.20;55.80;;;;;;5249936;26;19994;-72
2024/04/18 12:24:52;;;;;;;3.95;2.35;;;19.20;55.70;;;;;;5247870;26;20015;-73
2024/04/18 12:27:17;;;;;;;4.03;2.00;;;19.20;55.60;;;;;;5260065;26;19994;-73
2024/04/18 12:29:46;;;;;;;4.80;2.30;;;19.20;55.50;;;;;;5256860;26;20002;-72
2024/04/18 12:32:12;;;;;;;2.53;1.92;;;19.20;55.50;;;;;;5248410;26;20046;-72
2024/04/18 12:34:38;;;;;;;3.80;2.15;;;19.30;55.50;;;;;;5253035;26;20446;-71
2024/04/18 12:37:04;;;;;;;2.72;1.75;;;19.30;55.50;;;;;;5245125;26;20086;-73